createdAt,value
2019-04-26T00:00:10.530Z,49.90
2019-04-26T00:02:41.538Z,49.10
2019-04-26T00:05:10.881Z,49.10
2019-04-26T00:07:41.396Z,49.60
2019-04-26T00:10:20.470Z,49.90
2019-04-26T00:12:54.433Z,50.00
2019-04-26T00:15:24.968Z,49.60
2019-04-26T00:17:58.688Z,49.50
2019-04-26T00:20:28.731Z,49.50
2019-04-26T00:22:57.435Z,49.10
2019-04-26T00:25:26.526Z,49.00
2019-04-26T00:27:55.300Z,49.00
2019-04-26T00:30:24.585Z,49.20
2019-04-26T00:32:54.964Z,49.30
2019-04-26T00:35:23.767Z,49.20
2019-04-26T00:37:52.513Z,49.20
2019-04-26T00:40:22.360Z,49.60
2019-04-26T00:42:53.504Z,49.50
2019-04-26T00:45:24.797Z,49.60
2019-04-26T00:47:54.587Z,50.10
2019-04-26T00:50:23.521Z,49.70
2019-04-26T00:52:54.267Z,49.80
2019-04-26T00:55:24.024Z,50.50
2019-04-26T00:57:52.845Z,51.00
2019-04-26T01:00:23.536Z,50.60
2019-04-26T01:02:53.909Z,50.30
2019-04-26T01:05:23.158Z,49.90
2019-04-26T01:07:53.486Z,49.40
2019-04-26T01:10:23.499Z,49.80
2019-04-26T01:12:54.448Z,49.60
2019-04-26T01:15:24.630Z,49.30
2019-04-26T01:17:54.717Z,49.30
2019-04-26T01:20:26.825Z,49.20
2019-04-26T01:22:58.492Z,49.60
2019-04-26T01:25:48.578Z,50.10
2019-04-26T01:28:28.952Z,50.40
2019-04-26T01:31:00.317Z,50.40
2019-04-26T01:33:31.420Z,50.40
2019-04-26T01:36:12.141Z,50.20
2019-04-26T01:38:30.641Z,50.10
2019-04-26T01:41:01.299Z,50.10
2019-04-26T01:43:50.833Z,50.00
2019-04-26T01:46:24.821Z,50.00
2019-04-26T01:48:59.199Z,50.30
2019-04-26T01:51:30.861Z,50.60
2019-04-26T01:53:59.692Z,51.00
2019-04-26T01:56:31.467Z,51.00
2019-04-26T01:59:00.373Z,51.40
2019-04-26T02:01:31.615Z,51.50
2019-04-26T02:04:02.131Z,51.70
2019-04-26T02:06:34.846Z,52.10
2019-04-26T02:09:01.386Z,52.50
2019-04-26T02:11:31.388Z,52.90
2019-04-26T02:14:00.146Z,53.30
2019-04-26T02:16:29.640Z,53.40
2019-04-26T02:18:59.476Z,53.80
2019-04-26T02:21:34.219Z,54.10
2019-04-26T02:24:07.875Z,54.30
2019-04-26T02:26:38.500Z,54.40
2019-04-26T02:29:15.007Z,54.60
2019-04-26T02:31:46.520Z,54.70
2019-04-26T02:34:16.053Z,54.80
2019-04-26T02:36:57.262Z,54.60
2019-04-26T02:46:10.511Z,54.00
2019-04-26T02:48:46.346Z,53.90
2019-04-26T02:51:19.456Z,53.90
2019-04-26T02:53:57.051Z,53.80
2019-04-26T02:56:32.231Z,54.00
2019-04-26T02:59:10.672Z,54.50
2019-04-26T03:01:40.144Z,54.60
2019-04-26T03:04:08.937Z,54.40
2019-04-26T03:06:41.103Z,54.80
2019-04-26T03:09:14.789Z,55.50
2019-04-26T03:11:46.765Z,55.20
2019-04-26T03:14:19.045Z,55.50
2019-04-26T03:17:11.279Z,55.60
2019-04-26T03:19:59.826Z,56.10
2019-04-26T03:22:39.438Z,55.80
2019-04-26T03:25:18.288Z,56.10
2019-04-26T03:28:01.893Z,56.20
2019-04-26T03:30:42.356Z,56.00
2019-04-26T03:33:27.139Z,56.00
2019-04-26T03:36:06.197Z,56.30
2019-04-26T03:38:51.180Z,56.60
2019-04-26T03:41:34.242Z,56.60
2019-04-26T03:44:23.153Z,56.20
2019-04-26T03:46:58.198Z,56.20
2019-04-26T03:49:55.071Z,54.90
2019-04-26T03:52:47.968Z,54.70
2019-04-26T03:55:30.104Z,54.10
2019-04-26T03:58:08.813Z,53.90
2019-04-26T04:00:50.746Z,53.90
2019-04-26T04:03:29.649Z,53.90
2019-04-26T04:06:02.000Z,53.70
2019-04-26T04:08:40.755Z,53.80
2019-04-26T04:11:19.725Z,53.80
2019-04-26T04:13:53.954Z,53.60
2019-04-26T04:16:31.764Z,53.20
2019-04-26T04:22:49.335Z,52.70
2019-04-26T04:25:30.065Z,52.60
2019-04-26T04:28:04.490Z,52.70
2019-04-26T04:31:03.525Z,52.60
2019-04-26T04:33:47.837Z,52.50
2019-04-26T04:36:21.511Z,52.30
2019-04-26T04:39:12.199Z,52.10
2019-04-26T04:42:29.757Z,51.90
2019-04-26T04:45:27.191Z,51.60
2019-04-26T04:48:29.844Z,51.40
2019-04-26T04:51:25.828Z,51.10
2019-04-26T04:54:00.376Z,51.10
2019-04-26T04:56:47.820Z,50.80
2019-04-26T04:59:19.623Z,50.60
2019-04-26T05:02:00.318Z,50.20
2019-04-26T05:05:07.033Z,50.50
2019-04-26T05:07:49.369Z,50.60
2019-04-26T05:10:21.431Z,50.90
2019-04-26T05:13:15.560Z,51.10
2019-04-26T05:16:13.498Z,51.10
2019-04-26T05:18:48.545Z,51.20
2019-04-26T05:21:33.437Z,51.40
2019-04-26T05:24:08.531Z,51.60
2019-04-26T05:26:47.761Z,51.10
2019-04-26T05:29:21.254Z,50.40
2019-04-26T05:32:09.367Z,50.30
2019-04-26T05:35:00.795Z,50.00
2019-04-26T05:37:51.053Z,49.90
2019-04-26T05:40:57.720Z,49.30
2019-04-26T05:43:53.906Z,49.20
2019-04-26T05:46:30.268Z,49.10
2019-04-26T05:49:23.746Z,48.90
2019-04-26T05:52:31.935Z,49.10
2019-04-26T05:55:26.302Z,48.50
2019-04-26T05:58:17.262Z,48.50
2019-04-26T06:01:17.758Z,48.10
2019-04-26T06:04:28.987Z,48.40
2019-04-26T06:07:30.259Z,47.90
2019-04-26T06:10:09.262Z,46.70
2019-04-26T06:12:48.250Z,46.60
2019-04-26T06:15:37.640Z,46.10
2019-04-26T06:18:37.910Z,45.80
2019-04-26T06:21:18.576Z,45.40
2019-04-26T06:23:59.971Z,45.00
2019-04-26T06:26:45.340Z,44.60
2019-04-26T06:29:35.540Z,44.50
2019-04-26T06:32:16.471Z,44.30
2019-04-26T06:34:50.907Z,44.00
2019-04-26T06:37:36.214Z,43.30
2019-04-26T06:40:22.695Z,43.70
2019-04-26T06:43:12.007Z,43.30
2019-04-26T06:46:06.324Z,43.00
2019-04-26T06:49:06.914Z,42.60
2019-04-26T06:55:19.698Z,42.10
2019-04-26T06:58:01.126Z,42.10
2019-04-26T07:00:59.280Z,41.50
2019-04-26T07:03:44.804Z,41.40
2019-04-26T07:06:21.106Z,41.00
2019-04-26T07:09:02.702Z,41.30
2019-04-26T07:11:51.527Z,40.70
2019-04-26T07:14:43.825Z,40.20
2019-04-26T07:17:52.784Z,40.40
2019-04-26T07:24:54.661Z,39.60
2019-04-26T10:00:59.223Z,28.20
2019-04-26T10:03:29.170Z,27.90
2019-04-26T10:05:57.938Z,27.50
2019-04-26T10:08:27.112Z,26.70
2019-04-26T10:10:57.149Z,26.90
2019-04-26T10:13:30.567Z,27.20
2019-04-26T10:16:04.291Z,26.50
2019-04-26T10:18:33.613Z,26.70
2019-04-26T10:21:02.438Z,27.30
2019-04-26T10:23:31.345Z,27.20
2019-04-26T10:26:00.614Z,26.40
2019-04-26T10:28:29.483Z,26.70
2019-04-26T10:30:58.478Z,27.00
2019-04-26T10:33:27.249Z,25.90
2019-04-26T10:35:57.797Z,25.30
2019-04-26T10:38:29.043Z,25.20
2019-04-26T10:40:58.496Z,24.70
2019-04-26T10:43:29.403Z,24.30
2019-04-26T10:45:58.249Z,25.00
2019-04-26T10:48:27.210Z,24.90
2019-04-26T10:50:56.185Z,24.10
2019-04-26T10:53:36.216Z,23.80
2019-04-26T10:56:24.297Z,23.10
2019-04-26T10:59:13.209Z,22.50
2019-04-26T11:01:42.400Z,21.90
2019-04-26T11:04:11.232Z,21.90
2019-04-26T11:06:40.067Z,21.60
2019-04-26T11:09:09.168Z,21.10
2019-04-26T11:11:38.578Z,21.40
2019-04-26T11:14:07.354Z,21.80
2019-04-26T11:16:37.219Z,22.20
2019-04-26T11:19:07.329Z,22.40
2019-04-26T11:21:36.066Z,21.60
2019-04-26T11:24:05.012Z,21.80
2019-04-26T11:26:34.773Z,21.70
2019-04-26T11:29:04.216Z,21.00
2019-04-26T11:31:32.999Z,22.30
2019-04-26T11:34:05.546Z,23.20
2019-04-26T11:36:33.015Z,23.80
2019-04-26T11:39:05.431Z,24.20
2019-04-26T11:41:34.035Z,24.50
2019-04-26T11:44:02.703Z,24.70
2019-04-26T11:47:03.276Z,23.90
2019-04-26T11:49:31.986Z,23.50
2019-04-26T11:52:02.789Z,24.10
2019-04-26T11:54:31.184Z,24.00
2019-04-26T11:56:59.914Z,25.00
2019-04-26T11:59:30.557Z,24.90
2019-04-26T12:01:59.694Z,24.30
2019-04-26T12:04:42.009Z,23.00
2019-04-26T12:07:15.172Z,21.80
2019-04-26T12:09:48.666Z,21.60
2019-04-26T12:12:18.043Z,21.20
2019-04-26T12:14:46.756Z,21.40
2019-04-26T12:17:15.508Z,20.90
2019-04-26T12:19:48.181Z,21.60
2019-04-26T12:22:15.851Z,23.50
2019-04-26T12:24:44.640Z,25.40
2019-04-26T12:27:13.489Z,26.80
2019-04-26T12:29:44.230Z,27.40
2019-04-26T12:32:13.029Z,28.00
2019-04-26T12:34:41.937Z,28.70
2019-04-26T12:37:12.598Z,29.50
2019-04-26T12:39:41.189Z,29.60
2019-04-26T12:42:12.270Z,29.70
2019-04-26T12:44:43.087Z,29.90
2019-04-26T12:47:44.685Z,30.00
2019-04-26T12:50:14.788Z,29.20
2019-04-26T12:52:43.682Z,29.00
2019-04-26T12:55:13.803Z,29.20
2019-04-26T12:57:42.997Z,29.70
2019-04-26T13:00:13.835Z,30.30
2019-04-26T13:02:42.677Z,30.80
2019-04-26T13:05:14.523Z,31.10
2019-04-26T13:07:42.975Z,31.20
2019-04-26T13:10:20.679Z,31.60
2019-04-26T13:12:54.206Z,31.90
2019-04-26T13:15:46.257Z,32.70
2019-04-26T13:18:14.542Z,33.20
2019-04-26T13:20:44.009Z,33.70
2019-04-26T13:23:12.877Z,33.60
2019-04-26T13:25:42.184Z,33.90
2019-04-26T13:28:15.715Z,33.30
2019-04-26T13:30:43.605Z,33.20
2019-04-26T13:33:12.922Z,33.50
2019-04-26T13:35:46.553Z,33.50
2019-04-26T13:38:12.414Z,33.50
2019-04-26T13:40:41.158Z,33.60
2019-04-26T13:43:10.770Z,33.80
2019-04-26T13:45:41.236Z,34.00
2019-04-26T13:48:30.687Z,34.50
2019-04-26T13:51:07.024Z,34.90
2019-04-26T13:53:37.386Z,33.80
2019-04-26T13:56:08.127Z,34.10
2019-04-26T13:58:36.885Z,34.40
2019-04-26T14:01:05.809Z,34.70
2019-04-26T14:03:36.350Z,35.20
2019-04-26T14:06:07.073Z,35.80
2019-04-26T14:08:39.839Z,35.20
2019-04-26T14:11:08.652Z,35.30
2019-04-26T14:13:37.976Z,35.70
2019-04-26T14:16:07.167Z,35.70
2019-04-26T14:18:39.116Z,35.70
2019-04-26T14:21:06.857Z,35.40
2019-04-26T14:23:45.351Z,35.70
2019-04-26T14:26:15.559Z,35.40
2019-04-26T14:28:45.398Z,35.40
2019-04-26T14:31:16.553Z,35.40
2019-04-26T14:33:45.353Z,35.00
2019-04-26T14:36:17.915Z,34.80
2019-04-26T14:38:44.669Z,34.60
2019-04-26T14:41:21.881Z,34.60
2019-04-26T14:43:52.423Z,34.60
2019-04-26T14:46:17.182Z,34.40
2019-04-26T14:49:00.630Z,34.40
2019-04-26T14:51:18.466Z,35.30
2019-04-26T14:53:48.401Z,36.30
2019-04-26T14:56:17.961Z,35.50
2019-04-26T14:58:46.756Z,36.40
2019-04-26T15:01:32.327Z,37.20
2019-04-26T15:04:17.928Z,36.30
2019-04-26T15:06:52.006Z,36.50
2019-04-26T15:09:20.190Z,36.10
2019-04-26T15:11:55.372Z,36.20
2019-04-26T15:14:24.283Z,37.40
2019-04-26T15:16:54.518Z,36.70
2019-04-26T15:19:35.013Z,37.00
2019-04-26T15:22:09.838Z,37.40
2019-04-26T15:24:35.117Z,37.90
2019-04-26T15:27:04.089Z,38.20
2019-04-26T15:29:33.246Z,37.60
2019-04-26T15:32:04.835Z,37.70
2019-04-26T15:34:32.486Z,37.60
2019-04-26T15:37:02.992Z,37.70
2019-04-26T15:39:44.517Z,37.40
2019-04-26T15:42:31.535Z,37.30
2019-04-26T15:45:04.660Z,37.60
2019-04-26T15:47:35.029Z,37.40
2019-04-26T15:50:10.036Z,37.20
2019-04-26T15:52:37.052Z,37.30
2019-04-26T15:55:06.649Z,38.20
2019-04-26T15:57:36.164Z,38.30
2019-04-26T16:00:07.518Z,38.70
2019-04-26T16:02:37.046Z,38.90
2019-04-26T16:05:09.638Z,38.70
2019-04-26T16:07:38.400Z,38.50
2019-04-26T16:10:07.508Z,38.60
2019-04-26T16:12:36.260Z,39.50
2019-04-26T16:15:11.469Z,39.30
2019-04-26T16:17:40.081Z,39.20
2019-04-26T16:20:08.712Z,38.90
2019-04-26T16:22:37.616Z,38.00
2019-04-26T16:25:07.723Z,36.80
2019-04-26T16:27:36.539Z,35.80
2019-04-26T16:30:12.986Z,33.20
2019-04-26T16:35:28.088Z,30.10
2019-04-26T16:38:00.291Z,29.60
2019-04-26T16:40:32.475Z,29.70
2019-04-26T16:43:04.189Z,30.80
2019-04-26T16:45:37.291Z,31.90
2019-04-26T16:48:04.403Z,32.80
2019-04-26T16:50:37.203Z,33.80
2019-04-26T16:53:03.607Z,34.50
2019-04-26T16:55:37.998Z,34.90
2019-04-26T16:58:04.683Z,35.80
2019-04-26T17:00:50.263Z,36.50
2019-04-26T17:03:08.030Z,37.20
2019-04-26T17:05:47.485Z,37.60
2019-04-26T17:08:10.004Z,38.00
2019-04-26T17:09:51.145Z,31.10
2019-04-26T17:10:37.910Z,38.80
2019-04-26T17:13:06.826Z,39.30
2019-04-26T17:15:42.870Z,40.00
2019-04-26T17:18:12.731Z,40.60
2019-04-26T17:20:44.941Z,41.30
2019-04-26T17:23:19.418Z,42.00
2019-04-26T17:26:08.664Z,42.50
2019-04-26T17:28:38.634Z,43.10
2019-04-26T17:31:10.407Z,43.80
2019-04-26T17:33:39.211Z,44.50
2019-04-26T17:36:11.528Z,44.90
2019-04-26T17:38:39.177Z,45.20
2019-04-26T17:41:12.666Z,45.70
2019-04-26T17:43:46.948Z,45.70
2019-04-26T17:46:14.507Z,46.30
2019-04-26T17:48:44.793Z,46.70
2019-04-26T17:51:18.954Z,47.30
2019-04-26T17:53:47.981Z,47.80
2019-04-26T17:56:17.843Z,48.20
2019-04-26T17:58:52.341Z,48.80
2019-04-26T18:01:39.821Z,49.30
2019-04-26T18:03:54.341Z,49.70
2019-04-26T18:06:29.565Z,50.00
2019-04-26T18:08:54.711Z,50.20
2019-04-26T18:11:24.748Z,50.60
2019-04-26T18:13:52.705Z,50.90
2019-04-26T18:16:22.324Z,51.20
2019-04-26T18:19:12.740Z,51.60
2019-04-26T18:21:56.098Z,51.90
2019-04-26T18:24:27.483Z,52.40
2019-04-26T18:26:59.186Z,52.80
2019-04-26T18:29:29.203Z,52.90
2019-04-26T18:31:59.176Z,53.30
2019-04-26T18:34:34.625Z,53.30
2019-04-26T18:37:02.000Z,53.50
2019-04-26T18:39:33.178Z,53.90
2019-04-26T18:42:02.895Z,53.90
2019-04-26T18:44:36.836Z,54.60
2019-04-26T18:47:04.704Z,54.50
2019-04-26T18:49:33.477Z,54.70
2019-04-26T18:52:03.711Z,54.90
2019-04-26T18:54:51.321Z,55.10
2019-04-26T18:57:21.776Z,55.40
2019-04-26T18:59:52.859Z,55.70
2019-04-26T19:02:23.563Z,55.90
2019-04-26T19:04:52.948Z,56.10
2019-04-26T19:07:32.123Z,56.20
2019-04-26T19:10:03.416Z,56.40
2019-04-26T19:12:26.926Z,56.60
2019-04-26T19:15:03.208Z,57.00
2019-04-26T19:17:30.133Z,57.10
2019-04-26T19:20:03.658Z,57.30
2019-04-26T19:22:34.516Z,57.60
2019-04-26T19:25:02.967Z,57.80
2019-04-26T19:27:33.197Z,58.00
2019-04-26T19:30:04.296Z,58.10
2019-04-26T19:32:35.447Z,58.40
2019-04-26T19:38:14.729Z,59.20
2019-04-26T19:40:55.494Z,59.50
2019-04-26T19:43:32.550Z,59.70
2019-04-26T19:46:16.931Z,59.80
2019-04-26T19:48:55.523Z,60.10
2019-04-26T19:51:30.782Z,60.20
2019-04-26T19:54:02.089Z,59.80
2019-04-26T19:56:33.065Z,60.70
2019-04-26T19:59:03.230Z,61.20
2019-04-26T20:01:35.659Z,61.40
2019-04-26T20:04:05.321Z,61.80
2019-04-26T20:06:34.164Z,61.90
2019-04-26T20:09:03.472Z,62.50
2019-04-26T20:11:34.652Z,62.90
2019-04-26T20:14:03.495Z,63.00
2019-04-26T20:16:32.515Z,63.40
2019-04-26T20:19:02.495Z,63.80
2019-04-26T20:21:34.235Z,63.90
2019-04-26T20:24:04.826Z,64.00
2019-04-26T20:26:37.316Z,64.20
2019-04-26T20:29:06.145Z,64.70
2019-04-26T20:31:52.068Z,65.00
2019-04-26T20:34:22.903Z,65.00
2019-04-26T20:36:52.150Z,65.20
2019-04-26T20:39:24.227Z,65.60
2019-04-26T20:42:00.990Z,65.80
2019-04-26T20:44:28.679Z,65.60
2019-04-26T20:50:23.290Z,66.50
2019-04-26T20:53:00.669Z,66.50
2019-04-26T20:55:30.385Z,66.50
2019-04-26T20:58:04.882Z,66.60
2019-04-26T21:00:31.651Z,67.10
2019-04-26T21:03:05.796Z,67.40
2019-04-26T21:05:45.913Z,67.60
2019-04-26T21:08:05.616Z,67.90
2019-04-26T21:10:35.936Z,67.50
2019-04-26T21:13:05.961Z,67.70
2019-04-26T21:15:36.088Z,67.80
2019-04-26T21:18:05.295Z,67.90
2019-04-26T21:20:36.453Z,68.10
2019-04-26T21:23:04.648Z,68.30
2019-04-26T21:25:42.050Z,68.40
2019-04-26T21:28:22.117Z,68.70
2019-04-26T21:30:56.597Z,68.90
2019-04-26T21:33:35.396Z,69.10
2019-04-26T21:36:02.540Z,69.20
2019-04-26T21:38:36.394Z,69.10
2019-04-26T21:41:11.357Z,69.30
2019-04-26T21:43:38.394Z,69.50
2019-04-26T21:46:10.336Z,69.70
2019-04-26T21:48:41.948Z,69.60
2019-04-26T21:51:14.474Z,69.90
2019-04-26T21:53:43.862Z,70.00
2019-04-26T21:56:11.589Z,70.00
2019-04-26T21:58:41.157Z,70.40
2019-04-26T22:01:15.695Z,70.80
2019-04-26T22:03:47.401Z,70.80
2019-04-26T22:06:14.351Z,70.60
2019-04-26T22:08:47.284Z,71.00
2019-04-26T22:11:19.871Z,70.70
2019-04-26T22:14:03.477Z,70.80
2019-04-26T22:16:53.403Z,70.90
2019-04-26T22:19:35.338Z,71.10
2019-04-26T22:22:06.962Z,71.10
2019-04-26T22:24:39.806Z,71.60
2019-04-26T22:27:08.528Z,71.30
2019-04-26T22:29:37.357Z,71.70
2019-04-26T22:32:06.120Z,71.40
2019-04-26T22:34:37.408Z,71.70
2019-04-26T22:37:11.610Z,71.70
2019-04-26T22:39:39.786Z,72.00
2019-04-26T22:42:10.270Z,72.30
2019-04-26T22:44:40.597Z,72.40
2019-04-26T22:47:21.447Z,72.90
2019-04-26T22:49:51.975Z,72.80
2019-04-26T22:52:22.955Z,72.80
2019-04-26T22:54:53.741Z,73.00
2019-04-26T22:57:23.573Z,73.10
2019-04-26T22:59:56.812Z,73.30
2019-04-26T23:02:28.062Z,73.30
2019-04-26T23:05:00.646Z,73.40
2019-04-26T23:07:28.762Z,73.50
2019-04-26T23:09:57.658Z,73.50
2019-04-26T23:12:36.981Z,73.80
2019-04-26T23:15:24.027Z,74.00
2019-04-26T23:17:52.263Z,74.20
2019-04-26T23:20:39.979Z,74.60
2019-04-26T23:23:09.510Z,74.80
2019-04-26T23:25:39.638Z,74.90
2019-04-26T23:28:08.814Z,74.90
2019-04-26T23:30:37.644Z,75.30
2019-04-26T23:33:07.125Z,75.60
2019-04-26T23:35:43.356Z,75.30
2019-04-26T23:38:08.155Z,75.40
2019-04-26T23:40:37.909Z,75.50
2019-04-26T23:43:06.633Z,75.70
2019-04-26T23:45:35.554Z,75.70
2019-04-26T23:48:07.756Z,75.90
2019-04-26T23:50:35.911Z,76.40
2019-04-26T23:53:04.688Z,76.60
2019-04-26T23:55:33.822Z,76.50
2019-04-26T23:58:04.897Z,76.80
